createdAt,value
2018-07-02T00:01:24.099Z,54.60
2018-07-02T00:03:52.985Z,55.00
2018-07-02T00:06:36.037Z,55.30
2018-07-02T00:09:04.233Z,56.20
2018-07-02T00:11:33.453Z,55.90
2018-07-02T00:14:02.106Z,56.70
2018-07-02T00:16:30.889Z,57.20
2018-07-02T00:19:00.465Z,58.10
2018-07-02T00:21:28.948Z,57.50
2018-07-02T00:23:57.813Z,57.50
2018-07-02T00:26:26.136Z,57.30
2018-07-02T00:28:55.298Z,57.70
2018-07-02T00:31:23.862Z,58.10
2018-07-02T00:33:52.630Z,58.40
2018-07-02T00:36:21.826Z,58.80
2018-07-02T00:38:50.529Z,59.40
2018-07-02T00:41:18.915Z,59.90
2018-07-02T00:43:46.628Z,60.40
2018-07-02T00:46:14.252Z,60.80
2018-07-02T00:48:41.843Z,61.00
2018-07-02T00:51:09.445Z,61.20
2018-07-02T00:53:41.234Z,61.20
2018-07-02T00:56:08.806Z,61.40
2018-07-02T00:58:48.857Z,61.50
2018-07-02T01:01:16.520Z,61.80
2018-07-02T01:03:44.194Z,62.10
2018-07-02T01:06:11.788Z,61.90
2018-07-02T01:08:39.458Z,62.00
2018-07-02T01:11:07.062Z,62.00
2018-07-02T01:16:03.060Z,63.20
2018-07-02T01:18:31.557Z,63.50
2018-07-02T01:20:59.821Z,64.30
2018-07-02T01:23:28.056Z,63.30
2018-07-02T01:25:56.556Z,63.90
2018-07-02T01:28:24.907Z,64.60
2018-07-02T01:30:53.274Z,65.00
2018-07-02T01:33:21.018Z,64.60
2018-07-02T01:35:48.741Z,64.90
2018-07-02T01:38:16.380Z,65.00
2018-07-02T01:40:43.982Z,64.90
2018-07-02T01:43:11.653Z,65.50
2018-07-02T01:45:53.737Z,65.80
2018-07-02T01:48:21.875Z,66.00
2018-07-02T01:50:49.532Z,66.30
2018-07-02T01:53:17.167Z,66.30
2018-07-02T01:55:44.805Z,67.10
2018-07-02T01:58:12.479Z,67.90
2018-07-02T02:00:40.084Z,68.10
2018-07-02T02:03:08.026Z,68.40
2018-07-02T02:05:37.820Z,68.70
2018-07-02T02:08:06.338Z,68.60
2018-07-02T02:10:34.409Z,68.80
2018-07-02T02:13:03.011Z,68.70
2018-07-02T02:17:57.928Z,69.90
2018-07-02T02:20:25.550Z,69.80
2018-07-02T02:22:53.129Z,69.90
2018-07-02T02:25:20.811Z,70.00
2018-07-02T02:27:48.461Z,70.00
2018-07-02T02:30:17.192Z,70.10
2018-07-02T02:35:13.064Z,70.70
2018-07-02T02:40:08.822Z,71.00
2018-07-02T02:42:37.413Z,71.30
2018-07-02T02:45:06.167Z,71.50
2018-07-02T02:47:34.541Z,71.50
2018-07-02T02:50:03.659Z,72.10
2018-07-02T02:54:58.775Z,72.50
2018-07-02T02:57:26.744Z,72.20
2018-07-02T02:59:54.367Z,72.50
2018-07-02T03:02:29.751Z,72.70
2018-07-02T03:04:57.402Z,73.00
2018-07-02T03:07:24.999Z,72.90
2018-07-02T03:09:52.664Z,73.10
2018-07-02T03:12:20.455Z,73.30
2018-07-02T03:14:48.335Z,73.70
2018-07-02T03:17:15.958Z,73.70
2018-07-02T03:19:43.588Z,74.60
2018-07-02T03:22:11.271Z,74.50
2018-07-02T03:24:39.009Z,75.30
2018-07-02T03:27:07.275Z,75.10
2018-07-02T03:29:35.661Z,74.40
2018-07-02T03:32:04.374Z,74.30
2018-07-02T03:34:32.792Z,74.70
2018-07-02T03:37:01.488Z,74.90
2018-07-02T03:39:30.959Z,75.10
2018-07-02T03:41:59.937Z,75.20
2018-07-02T03:44:28.685Z,75.60
2018-07-02T03:46:56.865Z,75.90
2018-07-02T03:49:26.377Z,76.20
2018-07-02T03:51:55.714Z,76.70
2018-07-02T03:54:24.845Z,76.80
2018-07-02T03:56:53.748Z,77.30
2018-07-02T03:59:21.460Z,77.80
2018-07-02T04:01:49.145Z,77.70
2018-07-02T04:04:16.759Z,77.50
2018-07-02T04:06:44.359Z,77.20
2018-07-02T04:09:13.270Z,77.20
2018-07-02T04:11:46.205Z,77.10
2018-07-02T04:14:13.884Z,77.50
2018-07-02T04:16:41.797Z,77.00
2018-07-02T04:19:11.231Z,76.80
2018-07-02T04:21:39.931Z,76.70
2018-07-02T04:24:08.635Z,76.50
2018-07-02T04:26:37.634Z,76.00
2018-07-02T04:29:05.785Z,75.80
2018-07-02T04:31:34.319Z,76.60
2018-07-02T04:34:03.105Z,76.80
2018-07-02T04:36:31.528Z,74.30
2018-07-02T04:39:00.000Z,73.50
2018-07-02T04:41:28.925Z,72.70
2018-07-02T04:43:57.502Z,72.80
2018-07-02T04:46:27.040Z,72.40
2018-07-02T04:48:56.334Z,71.70
2018-07-02T04:51:24.513Z,72.00
2018-07-02T04:53:52.823Z,71.90
2018-07-02T04:56:20.624Z,71.50
2018-07-02T04:58:48.509Z,71.20
2018-07-02T05:01:23.408Z,70.50
2018-07-02T05:03:51.117Z,70.70
2018-07-02T05:06:18.739Z,70.20
2018-07-02T05:08:46.293Z,70.20
2018-07-02T05:11:13.912Z,70.30
2018-07-02T05:13:41.660Z,71.10
2018-07-02T05:16:09.318Z,69.70
2018-07-02T05:21:05.927Z,69.90
2018-07-02T05:23:34.873Z,68.70
2018-07-02T05:26:03.390Z,68.00
2018-07-02T05:28:32.379Z,67.50
2018-07-02T05:31:00.807Z,67.10
2018-07-02T05:33:29.450Z,65.80
2018-07-02T05:35:58.238Z,65.80
2018-07-02T05:38:28.043Z,65.70
2018-07-02T05:40:56.149Z,66.00
2018-07-02T05:43:24.408Z,65.30
2018-07-02T05:45:53.092Z,64.00
2018-07-02T05:48:21.517Z,62.10
2018-07-02T05:50:49.970Z,61.10
2018-07-02T05:53:19.426Z,60.50
2018-07-02T05:55:48.741Z,60.20
2018-07-02T05:58:16.908Z,59.80
2018-07-02T06:00:45.766Z,59.60
2018-07-02T06:03:15.653Z,59.30
2018-07-02T06:05:45.776Z,58.60
2018-07-02T06:08:14.535Z,59.10
2018-07-02T06:10:43.940Z,59.00
2018-07-02T06:13:13.178Z,59.00
2018-07-02T06:15:41.851Z,58.90
2018-07-02T06:18:12.377Z,57.90
2018-07-02T06:20:50.552Z,58.10
2018-07-02T06:23:18.997Z,57.30
2018-07-02T06:25:47.490Z,57.30
2018-07-02T06:28:17.181Z,57.00
2018-07-02T06:30:45.975Z,56.80
2018-07-02T06:33:14.546Z,55.90
2018-07-02T06:35:43.670Z,56.10
2018-07-02T06:38:14.517Z,55.20
2018-07-02T06:40:42.983Z,54.90
2018-07-02T06:43:12.914Z,54.10
2018-07-02T06:45:41.203Z,53.90
2018-07-02T06:48:08.984Z,52.80
2018-07-02T06:50:36.749Z,52.70
2018-07-02T06:53:04.394Z,52.70
2018-07-02T06:55:39.065Z,52.80
2018-07-02T06:58:06.911Z,50.90
2018-07-02T07:00:34.538Z,50.30
2018-07-02T07:03:02.231Z,49.00
2018-07-02T07:05:29.808Z,45.70
2018-07-02T07:07:57.386Z,42.10
2018-07-02T07:10:25.854Z,41.20
2018-07-02T07:12:54.479Z,41.30
2018-07-02T07:15:22.816Z,40.10
2018-07-02T07:17:50.879Z,39.40
2018-07-02T07:20:19.987Z,37.80
2018-07-02T07:22:48.181Z,37.50
2018-07-02T07:25:17.622Z,37.20
2018-07-02T07:27:46.955Z,36.80
2018-07-02T07:30:15.835Z,36.20
2018-07-02T07:32:43.604Z,36.40
2018-07-02T07:35:11.211Z,35.00
2018-07-02T07:37:38.822Z,34.90
2018-07-02T07:40:06.389Z,34.70
2018-07-02T07:45:04.912Z,33.80
2018-07-02T07:47:32.561Z,34.20
2018-07-02T07:50:00.175Z,33.40
2018-07-02T07:52:28.146Z,33.50
2018-07-02T07:54:56.572Z,32.10
2018-07-02T07:57:24.753Z,31.60
2018-07-02T07:59:53.022Z,31.20
2018-07-02T08:02:23.396Z,31.30
2018-07-02T08:04:51.798Z,30.70
2018-07-02T08:09:58.461Z,30.80
2018-07-02T08:12:27.326Z,31.10
2018-07-02T08:14:58.256Z,31.40
2018-07-02T08:17:26.189Z,30.60
2018-07-02T08:19:55.508Z,30.00
2018-07-02T08:22:26.193Z,30.70
2018-07-02T08:24:54.256Z,31.00
2018-07-02T08:27:22.712Z,31.10
2018-07-02T08:29:51.233Z,30.00
2018-07-02T08:32:29.015Z,30.40
2018-07-02T08:34:58.608Z,31.10
2018-07-02T08:37:28.900Z,30.60
2018-07-02T08:39:57.399Z,30.10
2018-07-02T08:42:26.615Z,30.00
2018-07-02T08:44:54.663Z,29.70
2018-07-02T08:47:22.342Z,29.60
2018-07-02T08:49:50.246Z,29.50
2018-07-02T08:52:18.852Z,29.10
2018-07-02T08:54:47.292Z,29.80
2018-07-02T08:57:15.579Z,30.00
2018-07-02T08:59:43.637Z,29.30
2018-07-02T09:04:40.408Z,28.80
2018-07-02T09:07:08.392Z,29.50
2018-07-02T09:09:36.171Z,29.10
2018-07-02T09:12:03.845Z,28.60
2018-07-02T09:14:31.417Z,29.10
2018-07-02T09:16:59.060Z,29.80
2018-07-02T09:19:26.649Z,28.80
2018-07-02T09:21:54.209Z,28.80
2018-07-02T09:24:29.129Z,29.70
2018-07-02T09:26:57.825Z,30.00
2018-07-02T09:29:30.147Z,29.60
2018-07-02T09:31:57.693Z,29.40
2018-07-02T09:34:38.181Z,29.20
2018-07-02T09:37:10.523Z,28.50
2018-07-02T09:39:41.416Z,29.20
2018-07-02T09:42:10.775Z,28.60
2018-07-02T09:44:40.139Z,29.00
2018-07-02T09:49:35.622Z,27.90
2018-07-02T09:52:03.158Z,27.80
2018-07-02T09:54:35.277Z,27.80
2018-07-02T09:59:30.072Z,28.30
2018-07-02T10:01:57.626Z,29.20
2018-07-02T10:04:25.237Z,28.90
2018-07-02T10:06:53.046Z,28.50
2018-07-02T10:11:49.849Z,28.60
2018-07-02T10:14:18.014Z,28.70
2018-07-02T10:16:46.245Z,28.80
2018-07-02T10:19:14.663Z,27.90
2018-07-02T10:21:44.263Z,28.20
2018-07-02T10:24:12.388Z,28.20
2018-07-02T10:26:44.007Z,27.80
2018-07-02T10:29:11.685Z,28.20
2018-07-02T10:31:39.223Z,28.40
2018-07-02T10:34:17.536Z,27.80
2018-07-02T10:36:45.176Z,27.20
2018-07-02T10:39:12.838Z,27.50
2018-07-02T10:41:49.483Z,27.90
2018-07-02T10:44:18.360Z,27.60
2018-07-02T10:46:46.357Z,27.40
2018-07-02T10:49:13.923Z,27.70
2018-07-02T10:51:41.548Z,27.50
2018-07-02T10:54:09.146Z,28.20
2018-07-02T10:56:36.771Z,27.30
2018-07-02T10:59:04.327Z,28.20
2018-07-02T11:01:31.983Z,27.50
2018-07-02T11:03:59.983Z,27.80
2018-07-02T11:06:28.341Z,27.30
2018-07-02T11:08:56.715Z,28.00
2018-07-02T11:11:25.275Z,27.40
2018-07-02T11:13:54.242Z,27.50
2018-07-02T11:18:51.416Z,28.50
2018-07-02T11:23:49.264Z,27.40
2018-07-02T11:26:18.099Z,27.50
2018-07-02T11:28:45.731Z,28.10
2018-07-02T11:31:13.370Z,28.00
2018-07-02T11:33:42.958Z,27.40
2018-07-02T11:36:18.592Z,28.00
2018-07-02T11:38:46.216Z,27.20
2018-07-02T11:41:14.236Z,27.40
2018-07-02T11:43:47.811Z,26.90
2018-07-02T11:46:19.786Z,27.60
2018-07-02T11:48:47.681Z,27.40
2018-07-02T11:51:15.257Z,27.60
2018-07-02T11:53:42.882Z,27.30
2018-07-02T11:56:12.644Z,26.40
2018-07-02T11:58:40.458Z,27.20
2018-07-02T12:01:08.045Z,26.90
2018-07-02T12:03:35.633Z,26.50
2018-07-02T12:06:03.177Z,26.90
2018-07-02T12:08:31.091Z,26.90
2018-07-02T12:10:59.198Z,26.40
2018-07-02T12:15:54.644Z,26.00
2018-07-02T12:18:28.676Z,26.60
2018-07-02T12:20:57.557Z,26.70
2018-07-02T12:23:25.190Z,25.80
2018-07-02T12:25:59.598Z,26.00
2018-07-02T12:28:27.856Z,25.80
2018-07-02T12:30:55.593Z,26.00
2018-07-02T12:33:23.234Z,26.20
2018-07-02T12:35:50.839Z,25.40
2018-07-02T12:38:24.413Z,25.60
2018-07-02T12:40:52.175Z,25.60
2018-07-02T12:43:19.743Z,25.70
2018-07-02T12:45:47.526Z,25.70
2018-07-02T12:48:17.095Z,25.20
2018-07-02T12:50:44.709Z,25.40
2018-07-02T12:53:12.318Z,25.50
2018-07-02T12:55:41.094Z,25.90
2018-07-02T12:58:09.168Z,25.30
2018-07-02T13:00:37.630Z,26.00
2018-07-02T13:05:59.172Z,24.90
2018-07-02T13:08:28.750Z,24.50
2018-07-02T13:10:56.930Z,25.30
2018-07-02T13:13:29.109Z,25.00
2018-07-02T13:15:58.389Z,25.30
2018-07-02T13:18:28.962Z,25.10
2018-07-02T13:20:56.737Z,25.20
2018-07-02T13:23:24.311Z,25.10
2018-07-02T13:25:51.929Z,24.90
2018-07-02T13:28:19.478Z,25.20
2018-07-02T13:30:57.977Z,25.40
2018-07-02T13:35:52.870Z,25.40
2018-07-02T13:38:20.483Z,26.20
2018-07-02T13:40:48.187Z,26.10
2018-07-02T13:45:56.534Z,26.50
2018-07-02T13:48:24.108Z,26.40
2018-07-02T13:50:51.684Z,27.10
2018-07-02T13:53:19.307Z,26.60
2018-07-02T13:55:46.974Z,26.20
2018-07-02T13:58:26.648Z,25.90
2018-07-02T14:00:54.337Z,26.70
2018-07-02T14:03:21.965Z,26.90
2018-07-02T14:05:57.918Z,27.00
2018-07-02T14:08:28.186Z,27.10
2018-07-02T14:10:55.905Z,26.40
2018-07-02T14:13:30.297Z,26.30
2018-07-02T14:15:59.702Z,26.30
2018-07-02T14:20:58.573Z,26.40
2018-07-02T14:23:28.368Z,26.10
2018-07-02T14:25:56.271Z,26.30
2018-07-02T14:28:23.833Z,26.20
2018-07-02T14:30:51.487Z,26.50
2018-07-02T14:33:19.091Z,26.10
2018-07-02T14:38:14.066Z,26.70
2018-07-02T14:40:41.582Z,26.80
2018-07-02T14:43:09.599Z,27.00
2018-07-02T14:45:37.818Z,27.80
2018-07-02T14:48:05.589Z,27.30
2018-07-02T14:50:37.433Z,27.10
2018-07-02T14:53:09.019Z,27.60
2018-07-02T14:55:36.930Z,27.10
2018-07-02T14:58:05.339Z,27.00
2018-07-02T15:00:33.402Z,27.20
2018-07-02T15:03:09.431Z,26.50
2018-07-02T15:05:37.866Z,26.90
2018-07-02T15:08:06.118Z,27.10
2018-07-02T15:10:34.517Z,27.50
2018-07-02T15:13:03.730Z,27.70
2018-07-02T15:15:32.203Z,27.80
2018-07-02T15:18:01.001Z,28.00
2018-07-02T15:20:29.383Z,27.90
2018-07-02T15:22:57.783Z,28.00
2018-07-02T15:25:29.791Z,28.00
2018-07-02T15:27:58.536Z,28.00
2018-07-02T15:30:26.303Z,28.50
2018-07-02T15:32:53.937Z,28.10
2018-07-02T15:35:21.538Z,28.10
2018-07-02T15:37:54.517Z,28.00
2018-07-02T15:40:22.182Z,28.20
2018-07-02T15:42:49.770Z,27.80
2018-07-02T15:45:17.412Z,27.60
2018-07-02T15:47:45.047Z,27.30
2018-07-02T15:50:12.844Z,27.70
2018-07-02T15:52:40.839Z,28.00
2018-07-02T15:55:09.124Z,27.40
2018-07-02T15:57:37.616Z,27.50
2018-07-02T16:00:05.794Z,27.30
2018-07-02T16:02:39.921Z,27.90
2018-07-02T16:05:08.145Z,27.60
2018-07-02T16:07:37.002Z,27.60
2018-07-02T16:10:05.586Z,27.60
2018-07-02T16:12:33.810Z,27.60
2018-07-02T16:15:02.088Z,27.90
2018-07-02T16:17:31.252Z,28.30
2018-07-02T16:20:00.465Z,27.90
2018-07-02T16:22:29.670Z,28.70
2018-07-02T16:24:58.289Z,28.00
2018-07-02T16:27:26.167Z,28.00
2018-07-02T16:29:54.906Z,28.30
2018-07-02T16:32:22.500Z,28.40
2018-07-02T16:34:55.486Z,28.00
2018-07-02T16:37:23.070Z,28.20
2018-07-02T16:39:50.652Z,28.60
2018-07-02T16:42:18.225Z,28.50
2018-07-02T16:44:45.829Z,27.90
2018-07-02T16:49:52.081Z,28.10
2018-07-02T16:52:19.670Z,28.70
2018-07-02T16:54:47.307Z,27.90
2018-07-02T16:57:15.863Z,28.40
2018-07-02T16:59:44.132Z,28.40
2018-07-02T17:02:11.814Z,28.50
2018-07-02T17:04:39.511Z,28.60
2018-07-02T17:07:07.854Z,29.00
2018-07-02T17:09:37.376Z,29.40
2018-07-02T17:12:05.724Z,29.00
2018-07-02T17:14:34.144Z,29.40
2018-07-02T17:17:02.712Z,28.80
2018-07-02T17:19:32.277Z,29.10
2018-07-02T17:22:00.604Z,28.90
2018-07-02T17:24:28.766Z,28.60
2018-07-02T17:26:56.913Z,28.90
2018-07-02T17:31:52.029Z,29.00
2018-07-02T17:34:27.911Z,29.20
2018-07-02T17:36:55.575Z,29.40
2018-07-02T17:39:23.967Z,29.50
2018-07-02T17:41:51.556Z,29.80
2018-07-02T17:44:19.114Z,29.80
2018-07-02T17:46:57.600Z,30.70
2018-07-02T17:49:25.255Z,30.90
2018-07-02T17:51:53.393Z,29.90
2018-07-02T17:54:25.743Z,30.20
2018-07-02T17:59:26.386Z,30.50
2018-07-02T18:01:54.051Z,30.00
2018-07-02T18:04:25.813Z,30.00
2018-07-02T18:06:53.583Z,30.20
2018-07-02T18:09:21.172Z,30.50
2018-07-02T18:11:48.765Z,30.80
2018-07-02T18:14:16.582Z,30.70
2018-07-02T18:16:56.775Z,31.00
2018-07-02T18:19:24.365Z,31.20
2018-07-02T18:21:52.055Z,31.20
2018-07-02T18:24:19.741Z,30.60
2018-07-02T18:26:47.683Z,30.80
2018-07-02T18:29:27.561Z,31.00
2018-07-02T18:31:55.397Z,30.60
2018-07-02T18:34:30.226Z,30.40
2018-07-02T18:36:58.410Z,30.90
2018-07-02T18:39:31.331Z,30.80
2018-07-02T18:41:59.708Z,30.80
2018-07-02T18:44:27.766Z,30.40
2018-07-02T18:46:55.369Z,30.70
2018-07-02T18:49:23.031Z,30.70
2018-07-02T18:51:50.670Z,30.90
2018-07-02T18:54:23.894Z,30.30
2018-07-02T18:59:24.473Z,30.70
2018-07-02T19:01:52.034Z,30.80
2018-07-02T19:04:30.086Z,30.40
2018-07-02T19:06:59.783Z,31.00
2018-07-02T19:09:30.750Z,30.80
2018-07-02T19:11:59.334Z,30.90
2018-07-02T19:14:30.450Z,31.30
2018-07-02T19:16:59.273Z,30.60
2018-07-02T19:19:29.870Z,31.20
2018-07-02T19:22:00.420Z,31.20
2018-07-02T19:24:28.803Z,31.30
2018-07-02T19:26:56.748Z,31.20
2018-07-02T19:29:24.718Z,31.30
2018-07-02T19:31:54.390Z,31.40
2018-07-02T19:34:22.031Z,32.10
2018-07-02T19:36:53.230Z,32.30
2018-07-02T19:39:21.010Z,32.60
2018-07-02T19:41:48.771Z,32.80
2018-07-02T19:44:16.439Z,33.10
2018-07-02T19:46:44.158Z,33.50
2018-07-02T19:49:13.861Z,33.60
2018-07-02T19:51:41.697Z,34.00
2018-07-02T19:54:09.476Z,34.20
2018-07-02T19:56:38.302Z,35.10
2018-07-02T19:59:07.254Z,34.90
2018-07-02T20:01:35.486Z,35.40
2018-07-02T20:04:03.846Z,35.80
2018-07-02T20:06:32.193Z,36.00
2018-07-02T20:09:00.635Z,35.90
2018-07-02T20:11:29.617Z,36.10
2018-07-02T20:13:58.450Z,36.30
2018-07-02T20:16:30.244Z,36.40
2018-07-02T20:19:00.083Z,36.10
2018-07-02T20:21:29.248Z,36.20
2018-07-02T20:23:57.273Z,36.20
2018-07-02T20:26:26.112Z,36.40
2018-07-02T20:28:54.080Z,36.10
2018-07-02T20:31:21.680Z,36.60
2018-07-02T20:33:55.053Z,37.00
2018-07-02T20:36:22.609Z,36.90
2018-07-02T20:39:04.041Z,36.90
2018-07-02T20:41:32.476Z,37.20
2018-07-02T20:44:01.252Z,36.80
2018-07-02T20:46:29.441Z,37.00
2018-07-02T20:48:57.690Z,37.90
2018-07-02T20:51:25.410Z,38.30
2018-07-02T20:53:59.382Z,38.40
2018-07-02T20:56:27.335Z,38.40
2018-07-02T20:58:54.939Z,37.90
2018-07-02T21:01:28.589Z,38.30
2018-07-02T21:03:56.459Z,38.60
2018-07-02T21:06:24.087Z,38.60
2018-07-02T21:08:53.726Z,38.50
2018-07-02T21:11:21.336Z,38.40
2018-07-02T21:13:48.953Z,38.60
2018-07-02T21:16:28.484Z,38.80
2018-07-02T21:18:59.556Z,39.00
2018-07-02T21:21:27.437Z,38.90
2018-07-02T21:23:59.330Z,39.10
2018-07-02T21:26:27.378Z,39.40
2018-07-02T21:28:55.082Z,39.20
2018-07-02T21:31:22.708Z,39.90
2018-07-02T21:33:51.339Z,40.70
2018-07-02T21:36:28.793Z,41.10
2018-07-02T21:38:59.084Z,40.60
2018-07-02T21:41:27.622Z,40.80
2018-07-02T21:43:58.345Z,41.20
2018-07-02T21:46:25.953Z,41.50
2018-07-02T21:51:28.017Z,42.90
2018-07-02T21:53:55.629Z,43.40
2018-07-02T21:56:23.182Z,43.30
2018-07-02T21:58:50.738Z,43.80
2018-07-02T22:01:30.498Z,44.50
2018-07-02T22:03:58.675Z,44.30
2018-07-02T22:06:26.369Z,44.60
2018-07-02T22:08:59.087Z,44.40
2018-07-02T22:11:27.265Z,44.80
2018-07-02T22:13:54.977Z,44.80
2018-07-02T22:16:22.711Z,45.60
2018-07-02T22:18:50.305Z,46.80
2018-07-02T22:21:17.885Z,46.00
2018-07-02T22:23:47.854Z,46.20
2018-07-02T22:26:15.613Z,46.50
2018-07-02T22:28:43.389Z,46.50
2018-07-02T22:31:11.607Z,46.30
2018-07-02T22:33:39.619Z,46.30
2018-07-02T22:36:09.093Z,46.90
2018-07-02T22:38:37.154Z,47.20
2018-07-02T22:43:33.668Z,47.60
2018-07-02T22:46:02.472Z,47.60
2018-07-02T22:50:59.833Z,48.60
2018-07-02T22:53:29.800Z,48.40
2018-07-02T22:56:00.964Z,48.40
2018-07-02T22:58:29.178Z,49.20
2018-07-02T23:01:00.076Z,49.60
2018-07-02T23:03:28.853Z,49.50
2018-07-02T23:05:58.024Z,49.20
2018-07-02T23:08:28.984Z,49.20
2018-07-02T23:10:58.246Z,49.30
2018-07-02T23:13:26.191Z,49.70
2018-07-02T23:15:59.606Z,50.70
2018-07-02T23:18:27.709Z,51.40
2018-07-02T23:20:55.326Z,51.70
2018-07-02T23:23:22.912Z,51.80
2018-07-02T23:25:50.518Z,52.00
2018-07-02T23:28:18.091Z,51.40
2018-07-02T23:30:45.898Z,52.20
2018-07-02T23:33:13.644Z,52.30
2018-07-02T23:38:09.819Z,52.50
2018-07-02T23:40:38.378Z,52.20
2018-07-02T23:43:08.102Z,52.40
2018-07-02T23:45:36.930Z,52.90
2018-07-02T23:48:05.399Z,53.10
2018-07-02T23:50:33.994Z,53.40
2018-07-02T23:53:03.604Z,53.80
2018-07-02T23:55:31.952Z,53.90
2018-07-02T23:58:00.869Z,54.40
